sensor_id;sensor_type;location;lat;lon;timestamp;P1;durP1;ratioP1;P2;durP2;ratioP2
82779;SDS011;72511;45.120;20.720;2023-11-21T00:08:10;34.13;;;20.23;;
82779;SDS011;72511;45.120;20.720;2023-11-21T00:18:12;31.23;;;19.42;;
82779;SDS011;72511;45.120;20.720;2023-11-21T00:28:15;25.02;;;16.08;;
82779;SDS011;72511;45.120;20.720;2023-11-21T00:38:16;33.20;;;18.67;;
82779;SDS011;72511;45.120;20.720;2023-11-21T00:48:20;36.35;;;21.27;;
82779;SDS011;72511;45.120;20.720;2023-11-21T00:58:23;26.20;;;15.65;;
82779;SDS011;72511;45.120;20.720;2023-11-21T01:08:25;28.80;;;15.73;;
82779;SDS011;72511;45.120;20.720;2023-11-21T01:18:26;25.05;;;13.25;;
82779;SDS011;72511;45.120;20.720;2023-11-21T01:28:28;21.92;;;12.68;;
82779;SDS011;72511;45.120;20.720;2023-11-21T01:38:29;20.35;;;12.38;;
82779;SDS011;72511;45.120;20.720;2023-11-21T01:48:30;19.02;;;12.98;;
82779;SDS011;72511;45.120;20.720;2023-11-21T01:58:32;20.63;;;12.45;;
82779;SDS011;72511;45.120;20.720;2023-11-21T02:08:34;19.52;;;10.98;;
82779;SDS011;72511;45.120;20.720;2023-11-21T02:18:39;15.50;;;9.98;;
82779;SDS011;72511;45.120;20.720;2023-11-21T02:28:40;18.70;;;11.18;;
82779;SDS011;72511;45.120;20.720;2023-11-21T02:38:43;21.40;;;11.48;;
82779;SDS011;72511;45.120;20.720;2023-11-21T02:48:44;17.88;;;11.25;;
82779;SDS011;72511;45.120;20.720;2023-11-21T02:58:45;22.58;;;13.50;;
82779;SDS011;72511;45.120;20.720;2023-11-21T03:08:47;19.00;;;9.82;;
82779;SDS011;72511;45.120;20.720;2023-11-21T03:18:48;19.83;;;10.43;;
82779;SDS011;72511;45.120;20.720;2023-11-21T03:28:49;15.85;;;10.13;;
82779;SDS011;72511;45.120;20.720;2023-11-21T03:38:52;14.43;;;9.10;;
82779;SDS011;72511;45.120;20.720;2023-11-21T03:48:53;15.98;;;7.97;;
82779;SDS011;72511;45.120;20.720;2023-11-21T03:58:56;23.90;;;12.70;;
82779;SDS011;72511;45.120;20.720;2023-11-21T04:08:58;54.28;;;23.42;;
82779;SDS011;72511;45.120;20.720;2023-11-21T04:18:59;49.78;;;24.40;;
82779;SDS011;72511;45.120;20.720;2023-11-21T04:29:01;27.20;;;13.35;;
82779;SDS011;72511;45.120;20.720;2023-11-21T04:39:02;14.60;;;10.68;;
82779;SDS011;72511;45.120;20.720;2023-11-21T04:49:04;27.95;;;12.30;;
82779;SDS011;72511;45.120;20.720;2023-11-21T04:59:05;21.80;;;11.38;;
82779;SDS011;72511;45.120;20.720;2023-11-21T05:09:07;18.83;;;12.45;;
82779;SDS011;72511;45.120;20.720;2023-11-21T05:19:12;17.10;;;9.32;;
82779;SDS011;72511;45.120;20.720;2023-11-21T05:29:14;16.55;;;8.60;;
82779;SDS011;72511;45.120;20.720;2023-11-21T05:39:15;22.88;;;11.30;;
82779;SDS011;72511;45.120;20.720;2023-11-21T05:49:18;23.35;;;12.55;;
82779;SDS011;72511;45.120;20.720;2023-11-21T06:00:10;23.08;;;13.65;;
82779;SDS011;72511;45.120;20.720;2023-11-21T06:10:15;24.23;;;14.50;;
82779;SDS011;72511;45.120;20.720;2023-11-21T06:20:18;18.42;;;10.73;;
82779;SDS011;72511;45.120;20.720;2023-11-21T06:30:20;37.88;;;17.92;;
82779;SDS011;72511;45.120;20.720;2023-11-21T06:40:22;49.00;;;23.40;;
82779;SDS011;72511;45.120;20.720;2023-11-21T06:50:23;25.08;;;13.13;;
82779;SDS011;72511;45.120;20.720;2023-11-21T07:00:25;18.08;;;10.68;;
82779;SDS011;72511;45.120;20.720;2023-11-21T07:10:28;36.58;;;15.90;;
82779;SDS011;72511;45.120;20.720;2023-11-21T07:20:30;24.65;;;11.32;;
82779;SDS011;72511;45.120;20.720;2023-11-21T07:30:31;52.90;;;21.73;;
82779;SDS011;72511;45.120;20.720;2023-11-21T07:40:33;37.78;;;17.05;;
82779;SDS011;72511;45.120;20.720;2023-11-21T07:50:34;15.90;;;10.57;;
82779;SDS011;72511;45.120;20.720;2023-11-21T08:00:35;18.45;;;10.05;;
82779;SDS011;72511;45.120;20.720;2023-11-21T08:10:39;27.35;;;13.82;;
82779;SDS011;72511;45.120;20.720;2023-11-21T08:20:41;30.45;;;13.63;;
82779;SDS011;72511;45.120;20.720;2023-11-21T08:30:43;23.33;;;13.45;;
82779;SDS011;72511;45.120;20.720;2023-11-21T08:40:45;20.63;;;10.75;;
82779;SDS011;72511;45.120;20.720;2023-11-21T08:50:46;19.05;;;10.02;;
82779;SDS011;72511;45.120;20.720;2023-11-21T09:00:48;15.85;;;8.70;;
82779;SDS011;72511;45.120;20.720;2023-11-21T09:10:49;16.27;;;8.23;;
82779;SDS011;72511;45.120;20.720;2023-11-21T09:20:50;15.18;;;8.32;;
82779;SDS011;72511;45.120;20.720;2023-11-21T09:30:52;16.27;;;8.02;;
82779;SDS011;72511;45.120;20.720;2023-11-21T09:40:53;19.33;;;10.25;;
82779;SDS011;72511;45.120;20.720;2023-11-21T09:50:55;13.82;;;8.45;;
82779;SDS011;72511;45.120;20.720;2023-11-21T10:00:57;13.73;;;7.22;;
82779;SDS011;72511;45.120;20.720;2023-11-21T10:11:01;15.88;;;8.32;;
82779;SDS011;72511;45.120;20.720;2023-11-21T10:21:04;15.05;;;6.68;;
82779;SDS011;72511;45.120;20.720;2023-11-21T10:31:07;17.15;;;8.55;;
82779;SDS011;72511;45.120;20.720;2023-11-21T10:41:11;20.23;;;9.88;;
82779;SDS011;72511;45.120;20.720;2023-11-21T10:51:17;19.95;;;9.98;;
82779;SDS011;72511;45.120;20.720;2023-11-21T11:01:20;26.63;;;12.35;;
82779;SDS011;72511;45.120;20.720;2023-11-21T11:11:22;24.27;;;11.50;;
82779;SDS011;72511;45.120;20.720;2023-11-21T11:21:26;21.65;;;10.52;;
82779;SDS011;72511;45.120;20.720;2023-11-21T11:31:45;14.75;;;7.30;;
82779;SDS011;72511;45.120;20.720;2023-11-21T11:41:56;13.70;;;5.93;;
82779;SDS011;72511;45.120;20.720;2023-11-21T12:02:40;44.25;;;20.13;;
82779;SDS011;72511;45.120;20.720;2023-11-21T12:12:42;35.40;;;16.20;;
82779;SDS011;72511;45.120;20.720;2023-11-21T12:22:51;15.43;;;7.97;;
82779;SDS011;72511;45.120;20.720;2023-11-21T12:32:54;17.63;;;10.95;;
82779;SDS011;72511;45.120;20.720;2023-11-21T12:42:57;22.23;;;11.85;;
82779;SDS011;72511;45.120;20.720;2023-11-21T12:53:07;19.60;;;9.07;;
82779;SDS011;72511;45.120;20.720;2023-11-21T13:03:11;22.27;;;11.80;;
82779;SDS011;72511;45.120;20.720;2023-11-21T13:13:17;23.02;;;13.13;;
82779;SDS011;72511;45.120;20.720;2023-11-21T13:23:19;25.73;;;13.60;;
82779;SDS011;72511;45.120;20.720;2023-11-21T13:33:20;33.58;;;15.70;;
82779;SDS011;72511;45.120;20.720;2023-11-21T13:43:29;29.33;;;15.57;;
82779;SDS011;72511;45.120;20.720;2023-11-21T13:53:32;75.25;;;36.40;;
82779;SDS011;72511;45.120;20.720;2023-11-21T14:03:33;142.30;;;62.47;;
82779;SDS011;72511;45.120;20.720;2023-11-21T14:13:45;112.22;;;50.00;;
82779;SDS011;72511;45.120;20.720;2023-11-21T14:23:49;118.22;;;52.83;;
82779;SDS011;72511;45.120;20.720;2023-11-21T14:33:51;163.88;;;73.10;;
82779;SDS011;72511;45.120;20.720;2023-11-21T14:43:52;143.30;;;64.28;;
82779;SDS011;72511;45.120;20.720;2023-11-21T14:53:55;96.15;;;48.47;;
82779;SDS011;72511;45.120;20.720;2023-11-21T15:04:10;41.35;;;24.20;;
82779;SDS011;72511;45.120;20.720;2023-11-21T15:14:31;52.72;;;29.00;;
82779;SDS011;72511;45.120;20.720;2023-11-21T15:24:33;68.85;;;38.92;;
82779;SDS011;72511;45.120;20.720;2023-11-21T15:34:35;58.28;;;33.22;;
82779;SDS011;72511;45.120;20.720;2023-11-21T15:44:37;56.10;;;32.97;;
82779;SDS011;72511;45.120;20.720;2023-11-21T15:54:39;58.88;;;32.97;;
82779;SDS011;72511;45.120;20.720;2023-11-21T16:04:41;88.72;;;41.33;;
82779;SDS011;72511;45.120;20.720;2023-11-21T16:14:43;90.88;;;41.58;;
82779;SDS011;72511;45.120;20.720;2023-11-21T16:24:48;101.30;;;52.58;;
82779;SDS011;72511;45.120;20.720;2023-11-21T16:34:50;68.90;;;36.67;;
82779;SDS011;72511;45.120;20.720;2023-11-21T16:44:51;102.00;;;48.88;;
82779;SDS011;72511;45.120;20.720;2023-11-21T16:54:54;96.47;;;45.28;;
82779;SDS011;72511;45.120;20.720;2023-11-21T17:04:56;101.78;;;58.30;;
82779;SDS011;72511;45.120;20.720;2023-11-21T17:14:57;58.72;;;31.48;;
82779;SDS011;72511;45.120;20.720;2023-11-21T17:24:58;29.30;;;15.40;;
82779;SDS011;72511;45.120;20.720;2023-11-21T17:35:00;50.47;;;22.90;;
82779;SDS011;72511;45.120;20.720;2023-11-21T17:45:02;46.97;;;25.33;;
82779;SDS011;72511;45.120;20.720;2023-11-21T17:55:04;30.77;;;17.98;;
82779;SDS011;72511;45.120;20.720;2023-11-21T18:05:06;33.88;;;18.95;;
82779;SDS011;72511;45.120;20.720;2023-11-21T18:15:12;77.20;;;38.28;;
82779;SDS011;72511;45.120;20.720;2023-11-21T18:25:15;149.25;;;62.60;;
82779;SDS011;72511;45.120;20.720;2023-11-21T18:35:20;45.47;;;27.98;;
82779;SDS011;72511;45.120;20.720;2023-11-21T18:45:22;44.42;;;26.25;;
82779;SDS011;72511;45.120;20.720;2023-11-21T18:55:24;70.07;;;31.92;;
82779;SDS011;72511;45.120;20.720;2023-11-21T19:05:25;38.97;;;19.95;;
82779;SDS011;72511;45.120;20.720;2023-11-21T19:15:27;48.08;;;22.85;;
82779;SDS011;72511;45.120;20.720;2023-11-21T19:25:35;53.30;;;26.73;;
82779;SDS011;72511;45.120;20.720;2023-11-21T19:35:37;41.38;;;21.67;;
82779;SDS011;72511;45.120;20.720;2023-11-21T19:45:39;41.22;;;21.05;;
82779;SDS011;72511;45.120;20.720;2023-11-21T19:55:41;47.22;;;23.02;;
82779;SDS011;72511;45.120;20.720;2023-11-21T20:05:42;60.40;;;26.17;;
82779;SDS011;72511;45.120;20.720;2023-11-21T20:15:43;58.42;;;32.10;;
82779;SDS011;72511;45.120;20.720;2023-11-21T20:25:45;49.17;;;27.20;;
82779;SDS011;72511;45.120;20.720;2023-11-21T20:35:47;84.38;;;37.20;;
82779;SDS011;72511;45.120;20.720;2023-11-21T20:45:49;51.58;;;25.60;;
82779;SDS011;72511;45.120;20.720;2023-11-21T20:55:50;60.88;;;27.30;;
82779;SDS011;72511;45.120;20.720;2023-11-21T21:05:54;49.25;;;23.67;;
82779;SDS011;72511;45.120;20.720;2023-11-21T21:15:56;53.22;;;26.17;;
82779;SDS011;72511;45.120;20.720;2023-11-21T21:25:57;45.20;;;24.35;;
82779;SDS011;72511;45.120;20.720;2023-11-21T21:35:59;41.10;;;21.73;;
82779;SDS011;72511;45.120;20.720;2023-11-21T21:46:01;42.83;;;20.88;;
82779;SDS011;72511;45.120;20.720;2023-11-21T21:56:03;64.18;;;28.20;;
82779;SDS011;72511;45.120;20.720;2023-11-21T22:06:04;37.38;;;20.67;;
82779;SDS011;72511;45.120;20.720;2023-11-21T22:16:06;87.97;;;43.38;;
82779;SDS011;72511;45.120;20.720;2023-11-21T22:26:09;35.55;;;16.33;;
82779;SDS011;72511;45.120;20.720;2023-11-21T22:36:15;56.13;;;25.23;;
82779;SDS011;72511;45.120;20.720;2023-11-21T22:46:17;38.92;;;19.85;;
82779;SDS011;72511;45.120;20.720;2023-11-21T22:56:18;35.08;;;17.70;;
82779;SDS011;72511;45.120;20.720;2023-11-21T23:06:22;28.45;;;14.60;;
82779;SDS011;72511;45.120;20.720;2023-11-21T23:16:24;26.45;;;16.17;;
82779;SDS011;72511;45.120;20.720;2023-11-21T23:26:26;36.67;;;22.02;;
82779;SDS011;72511;45.120;20.720;2023-11-21T23:36:27;42.60;;;23.00;;
82779;SDS011;72511;45.120;20.720;2023-11-21T23:46:28;37.72;;;21.30;;
82779;SDS011;72511;45.120;20.720;2023-11-21T23:56:30;34.70;;;21.33;;
